sensor_id;sensor_type;location;lat;lon;timestamp;P1;durP1;ratioP1;P2;durP2;ratioP2
32934;SDS011;19292;51.532;7.650;2024-03-23T00:53:30;9.75;;;2.15;;
32934;SDS011;19292;51.532;7.650;2024-03-23T00:55:55;4.60;;;1.23;;
32934;SDS011;19292;51.532;7.650;2024-03-23T00:58:20;1.95;;;0.77;;
32934;SDS011;19292;51.532;7.650;2024-03-23T01:00:46;9.05;;;1.67;;
32934;SDS011;19292;51.532;7.650;2024-03-23T01:03:11;6.63;;;1.92;;
32934;SDS011;19292;51.532;7.650;2024-03-23T01:05:36;2.92;;;1.42;;
32934;SDS011;19292;51.532;7.650;2024-03-23T01:08:02;1.88;;;1.20;;
32934;SDS011;19292;51.532;7.650;2024-03-23T01:10:27;3.28;;;0.88;;
32934;SDS011;19292;51.532;7.650;2024-03-23T01:12:53;7.45;;;1.40;;
32934;SDS011;19292;51.532;7.650;2024-03-23T01:15:18;2.47;;;0.85;;
32934;SDS011;19292;51.532;7.650;2024-03-23T01:17:43;5.25;;;0.93;;
32934;SDS011;19292;51.532;7.650;2024-03-23T01:20:08;4.55;;;0.85;;
32934;SDS011;19292;51.532;7.650;2024-03-23T01:22:34;1.33;;;0.77;;
32934;SDS011;19292;51.532;7.650;2024-03-23T01:24:59;4.22;;;1.63;;
32934;SDS011;19292;51.532;7.650;2024-03-23T01:27:25;2.72;;;0.80;;
32934;SDS011;19292;51.532;7.650;2024-03-23T01:29:50;2.88;;;0.95;;
32934;SDS011;19292;51.532;7.650;2024-03-23T01:32:17;10.85;;;1.83;;
32934;SDS011;19292;51.532;7.650;2024-03-23T01:34:43;1.48;;;0.68;;
32934;SDS011;19292;51.532;7.650;2024-03-23T01:37:08;9.40;;;2.38;;
32934;SDS011;19292;51.532;7.650;2024-03-23T01:39:34;1.33;;;0.98;;
32934;SDS011;19292;51.532;7.650;2024-03-23T01:41:59;2.75;;;0.63;;
32934;SDS011;19292;51.532;7.650;2024-03-23T01:44:24;6.07;;;1.25;;
32934;SDS011;19292;51.532;7.650;2024-03-23T01:46:50;5.72;;;1.48;;
32934;SDS011;19292;51.532;7.650;2024-03-23T01:49:15;1.40;;;0.77;;
32934;SDS011;19292;51.532;7.650;2024-03-23T01:51:41;2.90;;;1.02;;
32934;SDS011;19292;51.532;7.650;2024-03-23T01:54:06;6.32;;;1.35;;
32934;SDS011;19292;51.532;7.650;2024-03-23T01:56:32;1.90;;;0.68;;
32934;SDS011;19292;51.532;7.650;2024-03-23T01:59:00;1.45;;;0.80;;
32934;SDS011;19292;51.532;7.650;2024-03-23T02:01:26;2.75;;;1.27;;
32934;SDS011;19292;51.532;7.650;2024-03-23T02:03:51;5.07;;;1.42;;
32934;SDS011;19292;51.532;7.650;2024-03-23T02:06:17;4.50;;;1.55;;
32934;SDS011;19292;51.532;7.650;2024-03-23T02:08:43;10.65;;;1.38;;
32934;SDS011;19292;51.532;7.650;2024-03-23T02:11:08;6.35;;;1.52;;
32934;SDS011;19292;51.532;7.650;2024-03-23T02:13:34;2.30;;;1.63;;
32934;SDS011;19292;51.532;7.650;2024-03-23T02:15:59;8.00;;;1.60;;
32934;SDS011;19292;51.532;7.650;2024-03-23T02:18:24;2.35;;;1.13;;
32934;SDS011;19292;51.532;7.650;2024-03-23T02:20:50;6.43;;;1.13;;
32934;SDS011;19292;51.532;7.650;2024-03-23T02:23:15;4.88;;;1.65;;
32934;SDS011;19292;51.532;7.650;2024-03-23T02:25:41;8.00;;;1.58;;
32934;SDS011;19292;51.532;7.650;2024-03-23T02:28:07;3.35;;;0.98;;
32934;SDS011;19292;51.532;7.650;2024-03-23T02:30:32;3.05;;;1.20;;
32934;SDS011;19292;51.532;7.650;2024-03-23T02:32:58;0.45;;;0.45;;
32934;SDS011;19292;51.532;7.650;2024-03-23T02:35:23;2.35;;;1.30;;
32934;SDS011;19292;51.532;7.650;2024-03-23T02:37:49;0.77;;;0.52;;
32934;SDS011;19292;51.532;7.650;2024-03-23T02:40:15;3.25;;;0.50;;
32934;SDS011;19292;51.532;7.650;2024-03-23T02:42:40;3.47;;;1.05;;
32934;SDS011;19292;51.532;7.650;2024-03-23T02:45:06;0.98;;;0.63;;
32934;SDS011;19292;51.532;7.650;2024-03-23T02:47:32;6.40;;;1.60;;
32934;SDS011;19292;51.532;7.650;2024-03-23T02:49:57;0.43;;;0.35;;
32934;SDS011;19292;51.532;7.650;2024-03-23T02:52:23;6.00;;;0.80;;
32934;SDS011;19292;51.532;7.650;2024-03-23T02:54:48;0.73;;;0.30;;
32934;SDS011;19292;51.532;7.650;2024-03-23T02:57:13;1.17;;;0.60;;
32934;SDS011;19292;51.532;7.650;2024-03-23T02:59:39;3.70;;;0.70;;
32934;SDS011;19292;51.532;7.650;2024-03-23T03:02:04;3.25;;;0.55;;
32934;SDS011;19292;51.532;7.650;2024-03-23T03:04:30;2.42;;;0.65;;
32934;SDS011;19292;51.532;7.650;2024-03-23T03:06:55;5.38;;;0.77;;
32934;SDS011;19292;51.532;7.650;2024-03-23T03:09:21;3.42;;;0.85;;
32934;SDS011;19292;51.532;7.650;2024-03-23T03:11:46;0.85;;;0.50;;
32934;SDS011;19292;51.532;7.650;2024-03-23T03:14:11;0.75;;;0.22;;
32934;SDS011;19292;51.532;7.650;2024-03-23T03:16:37;1.65;;;1.02;;
32934;SDS011;19292;51.532;7.650;2024-03-23T03:19:02;0.75;;;0.45;;
32934;SDS011;19292;51.532;7.650;2024-03-23T03:21:28;5.57;;;0.88;;
32934;SDS011;19292;51.532;7.650;2024-03-23T03:23:53;1.15;;;0.75;;
32934;SDS011;19292;51.532;7.650;2024-03-23T03:26:21;0.38;;;0.38;;
32934;SDS011;19292;51.532;7.650;2024-03-23T03:28:46;0.80;;;0.22;;
32934;SDS011;19292;51.532;7.650;2024-03-23T03:31:15;7.93;;;0.98;;
32934;SDS011;19292;51.532;7.650;2024-03-23T03:33:41;1.65;;;0.30;;
32934;SDS011;19292;51.532;7.650;2024-03-23T03:36:07;0.82;;;0.52;;
32934;SDS011;19292;51.532;7.650;2024-03-23T03:38:32;3.05;;;1.85;;
32934;SDS011;19292;51.532;7.650;2024-03-23T03:41:00;2.42;;;1.23;;
32934;SDS011;19292;51.532;7.650;2024-03-23T03:43:25;1.95;;;0.80;;
32934;SDS011;19292;51.532;7.650;2024-03-23T03:45:51;1.27;;;1.17;;
32934;SDS011;19292;51.532;7.650;2024-03-23T03:48:19;3.72;;;1.50;;
32934;SDS011;19292;51.532;7.650;2024-03-23T03:50:45;12.10;;;0.93;;
32934;SDS011;19292;51.532;7.650;2024-03-23T03:53:10;6.50;;;0.73;;
32934;SDS011;19292;51.532;7.650;2024-03-23T03:55:36;1.30;;;0.50;;
32934;SDS011;19292;51.532;7.650;2024-03-23T03:58:01;1.30;;;0.90;;
32934;SDS011;19292;51.532;7.650;2024-03-23T04:00:27;1.75;;;0.68;;
32934;SDS011;19292;51.532;7.650;2024-03-23T04:02:52;3.45;;;0.85;;
32934;SDS011;19292;51.532;7.650;2024-03-23T04:05:17;0.77;;;0.77;;
32934;SDS011;19292;51.532;7.650;2024-03-23T04:07:44;2.15;;;0.47;;
32934;SDS011;19292;51.532;7.650;2024-03-23T04:10:09;1.75;;;1.00;;
32934;SDS011;19292;51.532;7.650;2024-03-23T04:12:35;5.10;;;1.73;;
32934;SDS011;19292;51.532;7.650;2024-03-23T04:15:00;6.32;;;2.92;;
32934;SDS011;19292;51.532;7.650;2024-03-23T04:17:28;0.55;;;0.55;;
32934;SDS011;19292;51.532;7.650;2024-03-23T04:19:56;9.50;;;0.60;;
32934;SDS011;19292;51.532;7.650;2024-03-23T04:22:22;0.80;;;0.70;;
32934;SDS011;19292;51.532;7.650;2024-03-23T04:24:49;0.40;;;0.40;;
32934;SDS011;19292;51.532;7.650;2024-03-23T04:27:14;2.97;;;0.52;;
32934;SDS011;19292;51.532;7.650;2024-03-23T04:29:39;3.60;;;0.35;;
32934;SDS011;19292;51.532;7.650;2024-03-23T04:32:05;0.30;;;0.30;;
32934;SDS011;19292;51.532;7.650;2024-03-23T04:34:30;9.50;;;0.55;;
32934;SDS011;19292;51.532;7.650;2024-03-23T04:36:57;0.60;;;0.60;;
32934;SDS011;19292;51.532;7.650;2024-03-23T04:39:23;4.55;;;0.65;;
32934;SDS011;19292;51.532;7.650;2024-03-23T04:41:48;4.72;;;0.93;;
32934;SDS011;19292;51.532;7.650;2024-03-23T04:44:14;6.43;;;0.55;;
32934;SDS011;19292;51.532;7.650;2024-03-23T04:46:39;0.43;;;0.35;;
32934;SDS011;19292;51.532;7.650;2024-03-23T04:49:04;1.83;;;0.52;;
32934;SDS011;19292;51.532;7.650;2024-03-23T04:51:34;9.82;;;0.95;;
32934;SDS011;19292;51.532;7.650;2024-03-23T04:56:26;8.70;;;1.40;;
32934;SDS011;19292;51.532;7.650;2024-03-23T04:58:51;0.88;;;0.40;;
32934;SDS011;19292;51.532;7.650;2024-03-23T05:01:16;2.72;;;0.88;;
32934;SDS011;19292;51.532;7.650;2024-03-23T05:03:42;2.50;;;0.65;;
32934;SDS011;19292;51.532;7.650;2024-03-23T05:06:07;0.55;;;0.50;;
32934;SDS011;19292;51.532;7.650;2024-03-23T05:08:33;1.30;;;0.68;;
32934;SDS011;19292;51.532;7.650;2024-03-23T05:10:58;3.58;;;0.73;;
32934;SDS011;19292;51.532;7.650;2024-03-23T05:13:23;6.53;;;1.05;;
32934;SDS011;19292;51.532;7.650;2024-03-23T05:15:54;0.90;;;0.80;;
32934;SDS011;19292;51.532;7.650;2024-03-23T05:18:20;5.32;;;2.10;;
32934;SDS011;19292;51.532;7.650;2024-03-23T05:20:46;14.32;;;1.15;;
32934;SDS011;19292;51.532;7.650;2024-03-23T05:23:11;4.90;;;1.13;;
32934;SDS011;19292;51.532;7.650;2024-03-23T05:25:37;4.15;;;1.35;;
32934;SDS011;19292;51.532;7.650;2024-03-23T05:28:02;0.57;;;0.55;;
32934;SDS011;19292;51.532;7.650;2024-03-23T05:30:28;3.38;;;1.80;;
32934;SDS011;19292;51.532;7.650;2024-03-23T05:32:53;6.00;;;1.90;;
32934;SDS011;19292;51.532;7.650;2024-03-23T05:35:19;0.52;;;0.52;;
32934;SDS011;19292;51.532;7.650;2024-03-23T05:37:44;2.75;;;1.45;;
32934;SDS011;19292;51.532;7.650;2024-03-23T05:40:10;6.03;;;1.05;;
32934;SDS011;19292;51.532;7.650;2024-03-23T05:42:37;7.53;;;0.93;;
32934;SDS011;19292;51.532;7.650;2024-03-23T05:45:03;0.85;;;0.68;;
32934;SDS011;19292;51.532;7.650;2024-03-23T05:47:31;1.50;;;1.13;;
32934;SDS011;19292;51.532;7.650;2024-03-23T05:49:56;2.53;;;0.98;;
32934;SDS011;19292;51.532;7.650;2024-03-23T05:52:22;3.67;;;1.65;;
32934;SDS011;19292;51.532;7.650;2024-03-23T05:54:47;3.28;;;1.38;;
32934;SDS011;19292;51.532;7.650;2024-03-23T05:57:12;9.93;;;1.20;;
32934;SDS011;19292;51.532;7.650;2024-03-23T05:59:38;1.90;;;1.05;;
32934;SDS011;19292;51.532;7.650;2024-03-23T06:02:03;2.45;;;1.05;;
32934;SDS011;19292;51.532;7.650;2024-03-23T06:04:29;6.88;;;2.00;;
32934;SDS011;19292;51.532;7.650;2024-03-23T06:06:54;5.38;;;1.42;;
32934;SDS011;19292;51.532;7.650;2024-03-23T06:09:19;1.35;;;0.65;;
32934;SDS011;19292;51.532;7.650;2024-03-23T06:11:45;1.60;;;0.88;;
32934;SDS011;19292;51.532;7.650;2024-03-23T06:14:10;10.65;;;1.85;;
32934;SDS011;19292;51.532;7.650;2024-03-23T06:16:36;4.18;;;1.45;;
32934;SDS011;19292;51.532;7.650;2024-03-23T06:19:01;10.20;;;2.47;;
32934;SDS011;19292;51.532;7.650;2024-03-23T06:21:29;12.13;;;2.63;;
32934;SDS011;19292;51.532;7.650;2024-03-23T06:23:54;8.32;;;3.63;;
32934;SDS011;19292;51.532;7.650;2024-03-23T06:26:20;7.55;;;2.58;;
32934;SDS011;19292;51.532;7.650;2024-03-23T06:28:46;9.13;;;3.30;;
32934;SDS011;19292;51.532;7.650;2024-03-23T06:31:11;4.70;;;3.58;;
32934;SDS011;19292;51.532;7.650;2024-03-23T06:33:37;4.03;;;2.40;;
32934;SDS011;19292;51.532;7.650;2024-03-23T06:36:05;5.80;;;2.50;;
32934;SDS011;19292;51.532;7.650;2024-03-23T06:38:31;8.73;;;4.00;;
32934;SDS011;19292;51.532;7.650;2024-03-23T06:40:56;7.38;;;3.10;;
32934;SDS011;19292;51.532;7.650;2024-03-23T06:43:22;20.42;;;3.92;;
32934;SDS011;19292;51.532;7.650;2024-03-23T06:45:54;9.70;;;2.85;;
32934;SDS011;19292;51.532;7.650;2024-03-23T06:48:20;9.18;;;4.07;;
32934;SDS011;19292;51.532;7.650;2024-03-23T06:50:45;7.95;;;4.43;;
32934;SDS011;19292;51.532;7.650;2024-03-23T06:53:11;16.73;;;4.32;;
32934;SDS011;19292;51.532;7.650;2024-03-23T06:55:37;14.73;;;5.07;;
32934;SDS011;19292;51.532;7.650;2024-03-23T06:58:03;11.45;;;5.63;;
32934;SDS011;19292;51.532;7.650;2024-03-23T07:00:29;10.55;;;4.32;;
32934;SDS011;19292;51.532;7.650;2024-03-23T07:02:54;16.85;;;5.40;;
32934;SDS011;19292;51.532;7.650;2024-03-23T07:05:19;12.00;;;4.78;;
32934;SDS011;19292;51.532;7.650;2024-03-23T07:07:45;10.85;;;6.72;;
32934;SDS011;19292;51.532;7.650;2024-03-23T07:10:10;10.40;;;6.70;;
32934;SDS011;19292;51.532;7.650;2024-03-23T07:12:35;19.45;;;7.90;;
32934;SDS011;19292;51.532;7.650;2024-03-23T07:15:01;11.65;;;5.47;;
32934;SDS011;19292;51.532;7.650;2024-03-23T07:17:26;18.38;;;6.57;;
32934;SDS011;19292;51.532;7.650;2024-03-23T07:19:51;14.30;;;5.95;;
32934;SDS011;19292;51.532;7.650;2024-03-23T07:22:17;15.27;;;6.30;;
32934;SDS011;19292;51.532;7.650;2024-03-23T07:24:43;28.15;;;6.63;;
32934;SDS011;19292;51.532;7.650;2024-03-23T07:27:09;13.25;;;5.30;;
32934;SDS011;19292;51.532;7.650;2024-03-23T07:29:35;11.60;;;5.53;;
32934;SDS011;19292;51.532;7.650;2024-03-23T07:32:01;11.02;;;5.82;;
32934;SDS011;19292;51.532;7.650;2024-03-23T07:34:26;19.55;;;7.97;;
32934;SDS011;19292;51.532;7.650;2024-03-23T07:36:52;20.85;;;8.80;;
32934;SDS011;19292;51.532;7.650;2024-03-23T07:39:17;9.48;;;4.88;;
32934;SDS011;19292;51.532;7.650;2024-03-23T07:41:45;10.07;;;5.53;;
32934;SDS011;19292;51.532;7.650;2024-03-23T07:44:11;17.02;;;6.90;;
32934;SDS011;19292;51.532;7.650;2024-03-23T07:46:36;13.95;;;6.10;;
32934;SDS011;19292;51.532;7.650;2024-03-23T07:49:03;19.13;;;7.38;;
32934;SDS011;19292;51.532;7.650;2024-03-23T07:51:29;9.40;;;5.57;;
32934;SDS011;19292;51.532;7.650;2024-03-23T07:53:54;17.15;;;5.68;;
32934;SDS011;19292;51.532;7.650;2024-03-23T07:56:19;12.35;;;5.22;;
32934;SDS011;19292;51.532;7.650;2024-03-23T07:58:46;12.52;;;5.53;;
32934;SDS011;19292;51.532;7.650;2024-03-23T08:01:12;10.73;;;5.28;;
32934;SDS011;19292;51.532;7.650;2024-03-23T08:03:40;8.48;;;4.88;;
32934;SDS011;19292;51.532;7.650;2024-03-23T08:06:16;9.98;;;5.20;;
32934;SDS011;19292;51.532;7.650;2024-03-23T08:08:45;11.88;;;5.95;;
32934;SDS011;19292;51.532;7.650;2024-03-23T08:11:11;16.33;;;6.05;;
32934;SDS011;19292;51.532;7.650;2024-03-23T08:13:38;7.10;;;5.00;;
32934;SDS011;19292;51.532;7.650;2024-03-23T08:16:04;9.15;;;5.63;;
32934;SDS011;19292;51.532;7.650;2024-03-23T08:18:29;8.13;;;4.45;;
32934;SDS011;19292;51.532;7.650;2024-03-23T08:20:58;8.18;;;4.78;;
32934;SDS011;19292;51.532;7.650;2024-03-23T08:23:25;10.57;;;3.97;;
32934;SDS011;19292;51.532;7.650;2024-03-23T08:25:50;12.65;;;5.32;;
32934;SDS011;19292;51.532;7.650;2024-03-23T08:28:16;8.52;;;4.68;;
32934;SDS011;19292;51.532;7.650;2024-03-23T08:30:42;10.27;;;4.88;;
32934;SDS011;19292;51.532;7.650;2024-03-23T08:33:07;12.90;;;5.72;;
32934;SDS011;19292;51.532;7.650;2024-03-23T08:35:33;7.75;;;4.32;;
32934;SDS011;19292;51.532;7.650;2024-03-23T08:37:59;10.40;;;5.38;;
32934;SDS011;19292;51.532;7.650;2024-03-23T08:40:25;9.70;;;4.45;;
32934;SDS011;19292;51.532;7.650;2024-03-23T08:42:50;16.25;;;4.50;;
32934;SDS011;19292;51.532;7.650;2024-03-23T08:45:15;8.77;;;3.83;;
32934;SDS011;19292;51.532;7.650;2024-03-23T08:47:41;13.40;;;4.40;;
32934;SDS011;19292;51.532;7.650;2024-03-23T08:50:06;7.82;;;3.75;;
32934;SDS011;19292;51.532;7.650;2024-03-23T08:52:32;7.03;;;3.30;;
32934;SDS011;19292;51.532;7.650;2024-03-23T08:54:57;11.40;;;4.38;;
32934;SDS011;19292;51.532;7.650;2024-03-23T08:57:23;14.05;;;4.53;;
32934;SDS011;19292;51.532;7.650;2024-03-23T08:59:50;11.27;;;3.83;;
32934;SDS011;19292;51.532;7.650;2024-03-23T09:02:15;17.63;;;3.65;;
32934;SDS011;19292;51.532;7.650;2024-03-23T09:04:41;7.93;;;3.55;;
32934;SDS011;19292;51.532;7.650;2024-03-23T09:07:06;12.77;;;4.47;;
32934;SDS011;19292;51.532;7.650;2024-03-23T09:09:31;6.07;;;2.72;;
32934;SDS011;19292;51.532;7.650;2024-03-23T09:11:56;5.07;;;3.83;;
32934;SDS011;19292;51.532;7.650;2024-03-23T09:14:22;8.10;;;3.10;;
32934;SDS011;19292;51.532;7.650;2024-03-23T09:16:49;6.68;;;3.20;;
32934;SDS011;19292;51.532;7.650;2024-03-23T09:19:16;4.45;;;2.75;;
32934;SDS011;19292;51.532;7.650;2024-03-23T09:21:42;16.35;;;15.15;;
32934;SDS011;19292;51.532;7.650;2024-03-23T09:24:07;32.28;;;30.58;;
32934;SDS011;19292;51.532;7.650;2024-03-23T09:26:32;50.17;;;47.33;;
32934;SDS011;19292;51.532;7.650;2024-03-23T09:28:58;26.50;;;25.20;;
32934;SDS011;19292;51.532;7.650;2024-03-23T09:31:23;39.78;;;37.20;;
32934;SDS011;19292;51.532;7.650;2024-03-23T09:33:48;57.58;;;54.63;;
32934;SDS011;19292;51.532;7.650;2024-03-23T09:36:14;56.60;;;53.58;;
32934;SDS011;19292;51.532;7.650;2024-03-23T09:38:40;37.65;;;35.10;;
32934;SDS011;19292;51.532;7.650;2024-03-23T09:41:06;46.50;;;44.17;;
32934;SDS011;19292;51.532;7.650;2024-03-23T09:43:33;16.55;;;15.60;;
32934;SDS011;19292;51.532;7.650;2024-03-23T09:45:58;9.43;;;8.57;;
32934;SDS011;19292;51.532;7.650;2024-03-23T09:48:24;15.57;;;14.35;;
32934;SDS011;19292;51.532;7.650;2024-03-23T09:50:49;25.92;;;24.52;;
32934;SDS011;19292;51.532;7.650;2024-03-23T09:53:15;45.65;;;43.55;;
32934;SDS011;19292;51.532;7.650;2024-03-23T09:55:41;71.68;;;68.18;;
32934;SDS011;19292;51.532;7.650;2024-03-23T09:58:07;62.28;;;59.05;;
32934;SDS011;19292;51.532;7.650;2024-03-23T10:00:33;55.55;;;52.88;;
32934;SDS011;19292;51.532;7.650;2024-03-23T10:02:59;70.53;;;67.53;;
32934;SDS011;19292;51.532;7.650;2024-03-23T10:05:27;49.25;;;46.60;;
32934;SDS011;19292;51.532;7.650;2024-03-23T10:07:53;11.77;;;11.02;;
32934;SDS011;19292;51.532;7.650;2024-03-23T10:10:18;6.13;;;5.55;;
32934;SDS011;19292;51.532;7.650;2024-03-23T10:12:46;18.30;;;17.40;;
32934;SDS011;19292;51.532;7.650;2024-03-23T10:17:50;25.30;;;23.77;;
32934;SDS011;19292;51.532;7.650;2024-03-23T10:20:19;39.50;;;36.40;;
32934;SDS011;19292;51.532;7.650;2024-03-23T10:22:47;153.38;;;145.63;;
32934;SDS011;19292;51.532;7.650;2024-03-23T10:25:13;51.20;;;48.30;;
32934;SDS011;19292;51.532;7.650;2024-03-23T10:27:39;68.60;;;65.45;;
32934;SDS011;19292;51.532;7.650;2024-03-23T10:30:11;68.07;;;65.07;;
32934;SDS011;19292;51.532;7.650;2024-03-23T10:32:38;31.63;;;29.90;;
32934;SDS011;19292;51.532;7.650;2024-03-23T10:35:22;60.25;;;56.50;;
32934;SDS011;19292;51.532;7.650;2024-03-23T10:37:47;17.23;;;16.33;;
32934;SDS011;19292;51.532;7.650;2024-03-23T10:40:14;32.65;;;30.48;;
32934;SDS011;19292;51.532;7.650;2024-03-23T10:42:40;24.50;;;23.35;;
32934;SDS011;19292;51.532;7.650;2024-03-23T10:45:06;17.23;;;16.10;;
32934;SDS011;19292;51.532;7.650;2024-03-23T10:47:33;24.08;;;22.70;;
32934;SDS011;19292;51.532;7.650;2024-03-23T10:50:05;17.13;;;16.05;;
32934;SDS011;19292;51.532;7.650;2024-03-23T10:52:32;7.22;;;6.82;;
32934;SDS011;19292;51.532;7.650;2024-03-23T10:54:58;14.02;;;13.32;;
32934;SDS011;19292;51.532;7.650;2024-03-23T10:57:26;17.40;;;16.00;;
32934;SDS011;19292;51.532;7.650;2024-03-23T11:00:05;10.45;;;9.52;;
32934;SDS011;19292;51.532;7.650;2024-03-23T11:02:31;39.17;;;37.17;;
32934;SDS011;19292;51.532;7.650;2024-03-23T11:04:57;43.65;;;41.15;;
32934;SDS011;19292;51.532;7.650;2024-03-23T11:07:32;6.57;;;2.88;;
32934;SDS011;19292;51.532;7.650;2024-03-23T11:09:58;8.25;;;7.60;;
32934;SDS011;19292;51.532;7.650;2024-03-23T11:12:25;15.38;;;14.40;;
32934;SDS011;19292;51.532;7.650;2024-03-23T11:14:55;3.22;;;2.92;;
32934;SDS011;19292;51.532;7.650;2024-03-23T11:25:18;7.47;;;6.68;;
32934;SDS011;19292;51.532;7.650;2024-03-23T11:27:48;23.38;;;22.23;;
32934;SDS011;19292;51.532;7.650;2024-03-23T11:30:21;7.70;;;6.70;;
32934;SDS011;19292;51.532;7.650;2024-03-23T11:32:48;16.63;;;15.07;;
32934;SDS011;19292;51.532;7.650;2024-03-23T11:35:27;118.93;;;111.20;;
32934;SDS011;19292;51.532;7.650;2024-03-23T11:40:41;24.05;;;22.73;;
32934;SDS011;19292;51.532;7.650;2024-03-23T11:43:08;33.05;;;31.00;;
32934;SDS011;19292;51.532;7.650;2024-03-23T11:45:43;4.22;;;4.07;;
32934;SDS011;19292;51.532;7.650;2024-03-23T11:50:56;6.68;;;6.35;;
32934;SDS011;19292;51.532;7.650;2024-03-23T11:53:25;7.80;;;3.28;;
32934;SDS011;19292;51.532;7.650;2024-03-23T11:55:55;3.85;;;3.72;;
32934;SDS011;19292;51.532;7.650;2024-03-23T11:58:22;5.10;;;4.05;;
32934;SDS011;19292;51.532;7.650;2024-03-23T12:00:52;4.13;;;3.92;;
32934;SDS011;19292;51.532;7.650;2024-03-23T12:03:20;14.13;;;13.43;;
32934;SDS011;19292;51.532;7.650;2024-03-23T12:05:50;22.05;;;21.00;;
32934;SDS011;19292;51.532;7.650;2024-03-23T12:10:50;11.60;;;10.70;;
32934;SDS011;19292;51.532;7.650;2024-03-23T12:13:16;23.38;;;22.30;;
32934;SDS011;19292;51.532;7.650;2024-03-23T12:15:42;15.27;;;14.48;;
32934;SDS011;19292;51.532;7.650;2024-03-23T12:18:09;2.83;;;2.72;;
32934;SDS011;19292;51.532;7.650;2024-03-23T12:20:35;14.40;;;13.77;;
32934;SDS011;19292;51.532;7.650;2024-03-23T12:23:09;6.38;;;5.88;;
32934;SDS011;19292;51.532;7.650;2024-03-23T12:25:36;7.75;;;7.35;;
32934;SDS011;19292;51.532;7.650;2024-03-23T12:28:05;9.48;;;9.07;;
32934;SDS011;19292;51.532;7.650;2024-03-23T12:30:40;19.48;;;18.58;;
32934;SDS011;19292;51.532;7.650;2024-03-23T12:33:05;10.57;;;9.63;;
32934;SDS011;19292;51.532;7.650;2024-03-23T12:35:31;13.13;;;12.52;;
32934;SDS011;19292;51.532;7.650;2024-03-23T12:37:56;27.42;;;26.08;;
32934;SDS011;19292;51.532;7.650;2024-03-23T12:40:22;9.38;;;8.90;;
32934;SDS011;19292;51.532;7.650;2024-03-23T12:42:47;11.00;;;10.43;;
32934;SDS011;19292;51.532;7.650;2024-03-23T12:45:12;22.48;;;21.42;;
32934;SDS011;19292;51.532;7.650;2024-03-23T12:47:38;11.80;;;10.85;;
32934;SDS011;19292;51.532;7.650;2024-03-23T12:50:03;35.75;;;33.60;;
32934;SDS011;19292;51.532;7.650;2024-03-23T12:52:29;18.05;;;17.10;;
32934;SDS011;19292;51.532;7.650;2024-03-23T12:54:57;25.90;;;24.70;;
32934;SDS011;19292;51.532;7.650;2024-03-23T12:57:23;7.25;;;6.85;;
32934;SDS011;19292;51.532;7.650;2024-03-23T12:59:50;5.80;;;5.50;;
32934;SDS011;19292;51.532;7.650;2024-03-23T13:02:25;14.13;;;3.85;;
32934;SDS011;19292;51.532;7.650;2024-03-23T13:04:50;2.10;;;2.03;;
32934;SDS011;19292;51.532;7.650;2024-03-23T13:07:16;2.63;;;2.53;;
32934;SDS011;19292;51.532;7.650;2024-03-23T13:09:42;15.88;;;14.95;;
32934;SDS011;19292;51.532;7.650;2024-03-23T13:12:08;4.18;;;2.92;;
32934;SDS011;19292;51.532;7.650;2024-03-23T13:14:33;3.33;;;3.13;;
32934;SDS011;19292;51.532;7.650;2024-03-23T13:16:59;9.27;;;6.50;;
32934;SDS011;19292;51.532;7.650;2024-03-23T13:19:24;40.88;;;37.65;;
32934;SDS011;19292;51.532;7.650;2024-03-23T13:21:52;12.32;;;11.68;;
32934;SDS011;19292;51.532;7.650;2024-03-23T13:24:21;55.78;;;52.70;;
32934;SDS011;19292;51.532;7.650;2024-03-23T13:26:50;28.55;;;26.63;;
32934;SDS011;19292;51.532;7.650;2024-03-23T13:29:16;3.30;;;3.05;;
32934;SDS011;19292;51.532;7.650;2024-03-23T13:31:41;17.95;;;16.92;;
32934;SDS011;19292;51.532;7.650;2024-03-23T13:34:06;13.23;;;12.57;;
32934;SDS011;19292;51.532;7.650;2024-03-23T13:36:32;3.65;;;2.95;;
32934;SDS011;19292;51.532;7.650;2024-03-23T13:38:57;2.95;;;2.78;;
32934;SDS011;19292;51.532;7.650;2024-03-23T13:41:22;3.28;;;3.13;;
32934;SDS011;19292;51.532;7.650;2024-03-23T13:43:49;3.65;;;3.35;;
32934;SDS011;19292;51.532;7.650;2024-03-23T13:46:14;12.60;;;11.93;;
32934;SDS011;19292;51.532;7.650;2024-03-23T13:48:39;7.38;;;6.78;;
32934;SDS011;19292;51.532;7.650;2024-03-23T13:51:07;8.13;;;7.72;;
32934;SDS011;19292;51.532;7.650;2024-03-23T13:53:32;24.05;;;22.75;;
32934;SDS011;19292;51.532;7.650;2024-03-23T13:55:58;37.65;;;35.45;;
32934;SDS011;19292;51.532;7.650;2024-03-23T13:58:23;16.85;;;16.15;;
32934;SDS011;19292;51.532;7.650;2024-03-23T14:00:51;5.63;;;5.35;;
32934;SDS011;19292;51.532;7.650;2024-03-23T14:03:17;6.95;;;6.65;;
32934;SDS011;19292;51.532;7.650;2024-03-23T14:05:43;5.90;;;5.55;;
32934;SDS011;19292;51.532;7.650;2024-03-23T14:08:09;20.33;;;19.42;;
32934;SDS011;19292;51.532;7.650;2024-03-23T14:10:35;34.40;;;32.88;;
32934;SDS011;19292;51.532;7.650;2024-03-23T14:13:03;18.63;;;17.63;;
32934;SDS011;19292;51.532;7.650;2024-03-23T14:15:29;26.17;;;24.98;;
32934;SDS011;19292;51.532;7.650;2024-03-23T14:17:57;17.65;;;16.80;;
32934;SDS011;19292;51.532;7.650;2024-03-23T14:20:23;8.77;;;8.18;;
32934;SDS011;19292;51.532;7.650;2024-03-23T14:22:49;43.25;;;41.33;;
32934;SDS011;19292;51.532;7.650;2024-03-23T14:25:14;48.42;;;46.05;;
32934;SDS011;19292;51.532;7.650;2024-03-23T14:27:40;4.40;;;4.22;;
32934;SDS011;19292;51.532;7.650;2024-03-23T14:30:05;4.75;;;4.45;;
32934;SDS011;19292;51.532;7.650;2024-03-23T14:32:31;8.23;;;7.85;;
32934;SDS011;19292;51.532;7.650;2024-03-23T14:35:01;1.98;;;1.95;;
32934;SDS011;19292;51.532;7.650;2024-03-23T14:37:27;38.63;;;36.67;;
32934;SDS011;19292;51.532;7.650;2024-03-23T14:39:55;4.05;;;3.90;;
32934;SDS011;19292;51.532;7.650;2024-03-23T14:42:20;8.75;;;8.15;;
32934;SDS011;19292;51.532;7.650;2024-03-23T14:44:46;4.40;;;4.00;;
32934;SDS011;19292;51.532;7.650;2024-03-23T14:47:11;4.60;;;4.40;;
32934;SDS011;19292;51.532;7.650;2024-03-23T14:49:37;4.18;;;3.88;;
32934;SDS011;19292;51.532;7.650;2024-03-23T14:52:03;5.40;;;5.05;;
32934;SDS011;19292;51.532;7.650;2024-03-23T14:54:28;13.75;;;13.15;;
32934;SDS011;19292;51.532;7.650;2024-03-23T14:56:54;6.07;;;3.95;;
32934;SDS011;19292;51.532;7.650;2024-03-23T14:59:21;3.75;;;3.55;;
32934;SDS011;19292;51.532;7.650;2024-03-23T15:01:46;3.92;;;3.63;;
32934;SDS011;19292;51.532;7.650;2024-03-23T15:04:11;4.68;;;4.35;;
32934;SDS011;19292;51.532;7.650;2024-03-23T15:06:38;6.22;;;5.45;;
32934;SDS011;19292;51.532;7.650;2024-03-23T15:09:03;6.75;;;5.80;;
32934;SDS011;19292;51.532;7.650;2024-03-23T15:11:32;11.55;;;10.88;;
32934;SDS011;19292;51.532;7.650;2024-03-23T15:13:58;13.82;;;12.98;;
32934;SDS011;19292;51.532;7.650;2024-03-23T15:16:23;3.15;;;3.03;;
32934;SDS011;19292;51.532;7.650;2024-03-23T15:18:49;3.35;;;3.03;;
32934;SDS011;19292;51.532;7.650;2024-03-23T15:21:14;6.85;;;6.50;;
32934;SDS011;19292;51.532;7.650;2024-03-23T15:23:45;6.38;;;5.22;;
32934;SDS011;19292;51.532;7.650;2024-03-23T15:26:10;5.30;;;5.00;;
32934;SDS011;19292;51.532;7.650;2024-03-23T15:28:35;3.63;;;3.30;;
32934;SDS011;19292;51.532;7.650;2024-03-23T15:31:27;4.03;;;3.35;;
32934;SDS011;19292;51.532;7.650;2024-03-23T15:33:52;3.15;;;2.95;;
32934;SDS011;19292;51.532;7.650;2024-03-23T15:36:17;13.65;;;13.05;;
32934;SDS011;19292;51.532;7.650;2024-03-23T15:38:43;3.60;;;3.42;;
32934;SDS011;19292;51.532;7.650;2024-03-23T15:41:09;3.80;;;3.53;;
32934;SDS011;19292;51.532;7.650;2024-03-23T15:43:34;7.13;;;6.82;;
32934;SDS011;19292;51.532;7.650;2024-03-23T15:46:01;3.63;;;2.05;;
32934;SDS011;19292;51.532;7.650;2024-03-23T15:48:27;2.55;;;2.10;;